Time;durP1;ratioP1;P1;durP2;ratioP2;P2;SDS_P1;SDS_P2;PMS_P1;PMS_P2;Temp;Humidity;BMP_temperature;BMP_pressure;BME280_temperature;BME280_humidity;BME280_pressure;Samples;Min_cycle;Max_cycle;Signal;HPM_P1;HPM_P2
2023/12/10 00:01:23;;;;;;;16.63;3.33;;;;;;;6.73;100.00;98544.38;10455072;28;20056;-80
2023/12/10 00:06:26;;;;;;;28.77;5.40;;;;;;;6.56;100.00;98542.47;10430642;28;20045;-78
2023/12/10 00:11:31;;;;;;;22.65;4.32;;;;;;;6.52;100.00;98565.06;10423967;28;20099;-78
2023/12/10 00:16:34;;;;;;;13.90;2.63;;;;;;;6.83;100.00;98571.88;10455852;28;20636;-79
2023/12/10 00:21:38;;;;;;;22.75;4.35;;;;;;;6.85;100.00;98564.56;10456258;28;20088;-79
2023/12/10 00:26:43;;;;;;;15.48;2.75;;;;;;;6.74;100.00;98593.25;10447503;28;20046;-78
2023/12/10 00:31:46;;;;;;;19.38;3.35;;;;;;;6.60;100.00;98587.38;10457119;28;20036;-79
2023/12/10 00:36:49;;;;;;;33.17;4.95;;;;;;;6.95;100.00;98609.94;10451046;28;20530;-79
2023/12/10 00:41:54;;;;;;;34.10;5.65;;;;;;;6.78;100.00;98605.34;10477784;28;20071;-77
2023/12/10 00:46:57;;;;;;;19.33;3.20;;;;;;;6.63;100.00;98628.94;10476022;28;20044;-80
2023/12/10 00:52:00;;;;;;;23.33;3.50;;;;;;;6.35;100.00;98628.81;10480657;28;20037;-79
2023/12/10 00:57:04;;;;;;;27.05;3.13;;;;;;;6.14;100.00;98634.28;10476328;28;20136;-79
2023/12/10 01:02:07;;;;;;;19.10;3.33;;;;;;;6.12;100.00;98643.41;10464876;28;20060;-79
2023/12/10 01:07:11;;;;;;;24.20;3.53;;;;;;;6.23;100.00;98635.25;10499918;28;20049;-79
2023/12/10 01:12:16;;;;;;;28.27;5.75;;;;;;;6.25;100.00;98653.78;10469640;28;20468;-79
2023/12/10 01:17:19;;;;;;;29.17;4.13;;;;;;;6.36;100.00;98637.63;10459943;28;20120;-79
2023/12/10 01:22:22;;;;;;;24.90;3.72;;;;;;;6.28;100.00;98637.50;10454148;28;20057;-80
2023/12/10 01:27:27;;;;;;;31.63;4.55;;;;;;;6.18;100.00;98650.84;10451630;28;20072;-80
2023/12/10 01:32:30;;;;;;;42.20;5.13;;;;;;;6.21;100.00;98657.72;10466032;28;20037;-80
2023/12/10 01:37:33;;;;;;;31.38;5.38;;;;;;;6.29;97.85;98655.19;10462103;28;20063;-80
2023/12/10 01:42:38;;;;;;;17.50;4.00;;;;;;;6.51;96.48;98662.91;10437466;28;20218;-80
2023/12/10 01:47:44;;;;;;;24.60;3.65;;;;;;;6.73;94.84;98675.13;10454628;28;20041;-79
2023/12/10 01:52:48;;;;;;;25.55;4.35;;;;;;;6.53;93.92;98668.97;10461034;28;20532;-79
2023/12/10 01:57:53;;;;;;;21.90;4.32;;;;;;;6.66;92.21;98671.34;10450720;28;20061;-79
2023/12/10 02:02:56;;;;;;;32.97;5.22;;;;;;;6.95;90.31;98687.34;10450397;28;20049;-79
2023/12/10 02:07:59;;;;;;;21.13;3.13;;;;;;;6.97;88.75;98681.91;10450087;28;20093;-79
2023/12/10 02:13:04;;;;;;;29.48;4.30;;;;;;;6.91;88.86;98702.00;10454406;28;20056;-78
2023/12/10 02:18:07;;;;;;;18.73;4.00;;;;;;;6.88;87.56;98698.75;10440226;28;20121;-80
2023/12/10 02:23:17;;;;;;;28.77;5.13;;;;;;;7.04;87.11;98699.84;10422313;28;20045;-79
2023/12/10 02:28:22;;;;;;;19.23;3.67;;;;;;;6.94;86.30;98704.38;10431438;28;20070;-79
2023/12/10 02:33:25;;;;;;;17.23;2.80;;;;;;;6.89;85.56;98701.28;10438029;28;20068;-79
2023/12/10 02:38:29;;;;;;;25.52;5.07;;;;;;;7.24;84.34;98721.16;10423371;28;20112;-79
2023/12/10 02:43:33;;;;;;;19.73;3.42;;;;;;;7.09;84.66;98715.44;10433189;28;20055;-78
2023/12/10 02:48:36;;;;;;;27.70;4.32;;;;;;;7.27;85.16;98731.59;10426202;28;20042;-78
2023/12/10 02:53:39;;;;;;;26.25;4.30;;;;;;;7.08;90.65;98740.47;10430410;28;20041;-79
2023/12/10 02:58:44;;;;;;;25.17;4.63;;;;;;;6.74;93.37;98756.84;10429033;28;20045;-78
2023/12/10 03:03:47;;;;;;;27.88;5.07;;;;;;;6.69;95.20;98751.13;10429495;28;20061;-78
2023/12/10 03:08:50;;;;;;;18.65;3.78;;;;;;;6.73;94.16;98754.34;10424042;28;20049;-77
2023/12/10 03:13:56;;;;;;;18.13;3.72;;;;;;;6.70;95.81;98751.97;10431616;28;20161;-79
2023/12/10 03:18:59;;;;;;;23.17;4.18;;;;;;;6.49;94.88;98762.72;10420793;28;20457;-79
2023/12/10 03:24:02;;;;;;;19.42;3.45;;;;;;;6.68;92.58;98752.09;10436037;28;20053;-78
2023/12/10 03:29:06;;;;;;;11.60;4.10;;;;;;;6.67;93.33;98782.44;10445933;28;20064;-78
2023/12/10 03:34:09;;;;;;;11.57;3.88;;;;;;;6.55;94.00;98779.00;10443025;28;20056;-78
2023/12/10 03:39:12;;;;;;;14.35;2.03;;;;;;;6.72;91.22;98785.53;10442342;28;20045;-79
2023/12/10 03:44:17;;;;;;;20.73;4.68;;;;;;;7.18;88.88;98785.84;10437426;28;20072;-79
2023/12/10 03:49:20;;;;;;;38.85;3.78;;;;;;;6.85;89.63;98788.75;10455575;28;20541;-78
2023/12/10 03:54:23;;;;;;;22.00;4.00;;;;;;;6.99;89.90;98792.03;10419879;28;20053;-78
2023/12/10 03:59:28;;;;;;;28.52;3.90;;;;;;;6.64;91.05;98793.38;10418688;28;20038;-78
2023/12/10 04:04:32;;;;;;;22.52;4.32;;;;;;;6.40;96.00;98799.91;10433559;28;20157;-79
2023/12/10 04:09:35;;;;;;;23.08;4.30;;;;;;;6.59;96.26;98800.94;10447076;28;20029;-80
2023/12/10 04:14:40;;;;;;;18.42;3.70;;;;;;;5.88;100.00;98807.16;10488630;28;20049;-79
2023/12/10 04:19:43;;;;;;;32.50;4.00;;;;;;;6.14;100.00;98823.56;10435117;28;20042;-79
2023/12/10 04:24:46;;;;;;;23.63;6.10;;;;;;;5.77;100.00;98825.88;10458444;28;20120;-79
2023/12/10 04:29:52;;;;;;;17.83;3.63;;;;;;;5.77;100.00;98841.88;10419539;28;20046;-78
2023/12/10 04:34:55;;;;;;;13.90;2.25;;;;;;;5.48;100.00;98834.53;10417508;28;20053;-79
2023/12/10 04:39:58;;;;;;;22.45;3.55;;;;;;;5.21;100.00;98851.03;10414499;28;20057;-77
2023/12/10 04:45:03;;;;;;;22.65;4.43;;;;;;;5.40;100.00;98836.16;10415713;28;20041;-77
2023/12/10 04:50:08;;;;;;;10.55;2.47;;;;;;;5.03;100.00;98850.72;10416080;28;20037;-78
2023/12/10 04:55:11;;;;;;;15.60;3.78;;;;;;;5.26;100.00;98840.81;10443415;28;20049;-78
2023/12/10 05:00:17;;;;;;;14.23;2.47;;;;;;;5.18;100.00;98859.22;10439892;28;20468;-79
2023/12/10 05:05:20;;;;;;;12.68;3.90;;;;;;;5.04;100.00;98841.75;10430164;28;20045;-78
2023/12/10 05:10:23;;;;;;;17.25;3.03;;;;;;;5.09;100.00;98856.50;10466459;28;20075;-78
2023/12/10 05:15:28;;;;;;;15.27;2.58;;;;;;;4.93;100.00;98846.25;10449953;28;20053;-79
2023/12/10 05:20:31;;;;;;;23.73;3.45;;;;;;;4.90;100.00;98852.66;10447147;28;20579;-78
2023/12/10 05:25:34;;;;;;;11.02;2.83;;;;;;;4.99;100.00;98857.28;10453453;28;20125;-78
2023/12/10 05:30:38;;;;;;;17.13;3.97;;;;;;;5.28;100.00;98849.53;10443367;28;20079;-78
2023/12/10 05:35:41;;;;;;;15.27;3.17;;;;;;;4.66;100.00;98854.66;10453418;28;20491;-79
2023/12/10 05:40:44;;;;;;;14.05;3.40;;;;;;;4.92;100.00;98861.38;10446163;28;20037;-79
2023/12/10 05:45:50;;;;;;;21.75;3.65;;;;;;;4.86;100.00;98893.81;10451647;28;20413;-79
2023/12/10 05:50:53;;;;;;;21.45;3.55;;;;;;;4.87;100.00;98858.22;10433117;28;20038;-79
2023/12/10 05:55:56;;;;;;;13.68;3.58;;;;;;;4.61;100.00;98853.22;10443517;28;20509;-79
2023/12/10 06:01:05;;;;;;;11.35;3.45;;;;;;;4.83;100.00;98835.53;10432126;28;20045;-79
2023/12/10 06:06:08;;;;;;;14.70;3.45;;;;;;;4.80;100.00;98852.56;10441878;28;20071;-79
2023/12/10 06:11:12;;;;;;;26.17;4.18;;;;;;;4.79;100.00;98863.34;10448232;28;20037;-78
2023/12/10 06:16:16;;;;;;;8.68;2.28;;;;;;;4.71;100.00;98871.09;10436412;28;20689;-78
2023/12/10 06:21:19;;;;;;;13.80;3.30;;;;;;;4.65;100.00;98876.91;10431981;28;20041;-78
2023/12/10 06:26:22;;;;;;;16.50;3.80;;;;;;;4.81;100.00;98880.03;10433163;28;20132;-78
2023/12/10 06:31:27;;;;;;;10.50;3.58;;;;;;;4.64;100.00;98893.84;10434925;28;20084;-77
2023/12/10 06:36:30;;;;;;;19.95;4.78;;;;;;;4.87;100.00;98860.91;10445787;28;20055;-79
2023/12/10 06:41:33;;;;;;;17.70;3.15;;;;;;;4.71;100.00;98901.19;10455153;28;20405;-78
2023/12/10 06:46:38;;;;;;;16.27;3.58;;;;;;;4.96;100.00;98900.03;10436780;28;20049;-78
2023/12/10 06:51:41;;;;;;;17.48;3.28;;;;;;;4.94;100.00;98904.66;10437971;28;20041;-78
2023/12/10 06:56:44;;;;;;;16.75;3.40;;;;;;;4.66;100.00;98923.81;10461258;28;20029;-78
2023/12/10 07:01:49;;;;;;;25.30;3.33;;;;;;;4.56;100.00;98927.19;10481387;28;20049;-79
2023/12/10 07:06:53;;;;;;;9.13;2.10;;;;;;;4.54;100.00;98946.91;10488170;28;20136;-80
2023/12/10 07:11:57;;;;;;;17.80;3.72;;;;;;;4.53;100.00;98938.09;10445340;28;20492;-79
2023/12/10 07:17:01;;;;;;;15.48;2.00;;;;;;;4.67;100.00;98944.97;10460843;28;20052;-79
2023/12/10 07:22:05;;;;;;;16.05;2.42;;;;;;;4.62;100.00;98955.97;10450557;28;20064;-79
2023/12/10 07:27:08;;;;;;;11.75;2.67;;;;;;;4.54;100.00;98949.56;10459226;28;20068;-79
2023/12/10 07:32:12;;;;;;;19.67;3.60;;;;;;;4.71;100.00;98949.06;10425260;28;20049;-78
2023/12/10 07:37:15;;;;;;;17.15;3.55;;;;;;;4.55;100.00;98978.72;10430948;28;20479;-79
2023/12/10 07:42:18;;;;;;;12.48;2.83;;;;;;;4.84;100.00;98960.44;10425819;28;20041;-78
2023/12/10 07:47:23;;;;;;;26.88;3.40;;;;;;;4.72;100.00;98988.03;10431943;28;20052;-78
2023/12/10 07:52:26;;;;;;;15.68;3.55;;;;;;;4.60;100.00;98992.47;10439790;28;20065;-78
2023/12/10 07:57:30;;;;;;;15.75;3.47;;;;;;;4.79;100.00;98981.22;10438185;28;20412;-79
2023/12/10 08:02:34;;;;;;;22.77;4.05;;;;;;;4.85;100.00;98979.88;10440616;28;20052;-79
2023/12/10 08:07:37;;;;;;;28.42;6.57;;;;;;;4.75;100.00;98979.78;10443178;28;20049;-79
2023/12/10 08:12:41;;;;;;;13.93;3.65;;;;;;;4.98;100.00;98993.06;10438713;28;20056;-79
2023/12/10 08:17:45;;;;;;;21.70;4.03;;;;;;;4.77;100.00;98987.63;10447852;28;20069;-81
2023/12/10 08:22:49;;;;;;;19.05;3.42;;;;;;;4.94;100.00;99003.13;10443073;28;20044;-80
2023/12/10 08:27:51;;;;;;;20.40;4.18;;;;;;;4.80;100.00;99040.59;10435864;28;20064;-81
2023/12/10 08:32:56;;;;;;;9.00;2.75;;;;;;;5.11;100.00;99019.59;10457011;28;20049;-78
2023/12/10 08:37:59;;;;;;;13.82;3.28;;;;;;;4.95;100.00;99027.91;10446899;28;20175;-80
2023/12/10 08:43:02;;;;;;;14.10;3.72;;;;;;;4.96;100.00;99057.06;10437686;28;20045;-78
2023/12/10 08:48:07;;;;;;;22.67;2.97;;;;;;;4.94;100.00;99051.03;10419071;28;20535;-78
2023/12/10 08:53:10;;;;;;;15.60;3.13;;;;;;;4.97;100.00;99080.06;10442648;28;20238;-79
2023/12/10 08:58:13;;;;;;;12.07;2.60;;;;;;;5.07;100.00;99058.91;10440887;28;20053;-79
2023/12/10 09:03:18;;;;;;;17.98;4.00;;;;;;;5.11;100.00;99070.16;10453960;28;20033;-78
2023/12/10 09:08:21;;;;;;;23.02;3.10;;;;;;;5.06;100.00;99110.44;10479330;28;20044;-78
2023/12/10 09:13:24;;;;;;;28.60;3.53;;;;;;;5.09;100.00;99115.53;10447699;28;20548;-78
2023/12/10 09:18:36;;;;;;;22.73;3.75;;;;;;;5.44;100.00;99101.25;10434686;28;20452;-78
2023/12/10 09:23:39;;;;;;;12.07;2.80;;;;;;;5.23;100.00;99123.25;10469114;28;20076;-78
2023/12/10 09:28:42;;;;;;;17.73;3.35;;;;;;;5.39;100.00;99130.91;10452402;28;20055;-78
2023/12/10 09:33:47;;;;;;;22.92;2.75;;;;;;;5.35;100.00;99149.88;10475780;28;20128;-79
2023/12/10 09:38:51;;;;;;;30.25;4.03;;;;;;;5.36;100.00;99148.94;10463330;28;20452;-78
2023/12/10 09:43:54;;;;;;;24.55;3.70;;;;;;;5.38;100.00;99153.19;10441631;28;20594;-79
2023/12/10 09:49:00;;;;;;;18.08;2.55;;;;;;;5.38;100.00;99145.19;10451122;28;20051;-79
2023/12/10 09:54:04;;;;;;;15.95;2.80;;;;;;;5.46;100.00;99153.41;10439279;28;20040;-79
2023/12/10 09:59:08;;;;;;;13.82;3.05;;;;;;;5.61;100.00;99135.34;10435594;28;20185;-79
2023/12/10 10:04:13;;;;;;;12.25;2.47;;;;;;;5.37;100.00;99139.97;10472245;28;20060;-79
2023/12/10 10:09:16;;;;;;;16.50;2.53;;;;;;;5.62;100.00;99170.81;10417460;28;20072;-79
2023/12/10 10:14:34;;;;;;;11.57;2.47;;;;;;;5.40;100.00;99183.22;10457451;28;20045;-80
2023/12/10 10:19:39;;;;;;;21.85;4.30;;;;;;;5.61;100.00;99193.97;10444611;28;20046;-79
2023/12/10 10:24:42;;;;;;;15.45;2.88;;;;;;;5.47;100.00;99218.19;10443084;28;20056;-79
2023/12/10 10:29:45;;;;;;;18.52;2.10;;;;;;;5.71;100.00;99229.56;10452676;28;20116;-80
2023/12/10 10:34:50;;;;;;;18.55;2.53;;;;;;;5.78;100.00;99215.75;10440186;28;20080;-78
2023/12/10 10:39:54;;;;;;;8.25;2.30;;;;;;;5.43;100.00;99244.22;10459511;28;20041;-78
2023/12/10 10:44:57;;;;;;;30.75;3.25;;;;;;;5.36;100.00;99234.16;10445058;28;20054;-79
2023/12/10 10:50:03;;;;;;;18.05;3.50;;;;;;;5.45;100.00;99233.44;10450529;28;20045;-80
2023/12/10 10:55:27;;;;;;;17.85;3.88;;;;;;;5.13;100.00;99252.75;10477690;28;20137;-79
2023/12/10 11:00:34;;;;;;;16.15;3.25;;;;;;;5.22;100.00;99265.34;10467979;28;20061;-81
2023/12/10 11:05:40;;;;;;;14.80;3.17;;;;;;;4.96;100.00;99256.63;10454881;28;20389;-81
2023/12/10 11:10:46;;;;;;;24.95;3.58;;;;;;;5.43;100.00;99254.00;10444512;28;20095;-81
2023/12/10 11:15:57;;;;;;;14.32;2.05;;;;;;;5.32;100.00;99260.19;10433000;28;20040;-80
2023/12/10 11:21:02;;;;;;;23.98;3.03;;;;;;;5.59;100.00;99261.66;10444019;28;20093;-79
2023/12/10 11:26:06;;;;;;;24.65;2.67;;;;;;;5.19;100.00;99275.41;10457395;28;20081;-80
2023/12/10 11:31:10;;;;;;;19.30;3.28;;;;;;;5.28;100.00;99262.22;10448579;28;20047;-79
2023/12/10 11:36:14;;;;;;;20.67;3.00;;;;;;;5.30;100.00;99259.44;10438430;28;20045;-80
2023/12/10 11:41:40;;;;;;;10.32;1.88;;;;;;;5.37;100.00;99284.63;10442826;28;20833;-78
2023/12/10 11:47:03;;;;;;;16.45;1.98;;;;;;;5.56;100.00;99281.38;10465780;28;20060;-79
2023/12/10 11:52:08;;;;;;;14.07;3.53;;;;;;;5.79;100.00;99284.94;10448234;28;20043;-80
2023/12/10 11:57:12;;;;;;;10.82;1.95;;;;;;;5.90;100.00;99316.91;10448465;28;20048;-79
2023/12/10 12:02:15;;;;;;;14.48;1.88;;;;;;;5.97;100.00;99303.09;10452060;28;20407;-79
2023/12/10 12:07:26;;;;;;;14.15;2.25;;;;;;;6.00;100.00;99302.84;10445758;28;20094;-79
2023/12/10 12:12:30;;;;;;;16.95;3.47;;;;;;;5.84;100.00;99312.06;10474411;28;20040;-80
2023/12/10 12:17:35;;;;;;;18.00;2.63;;;;;;;6.13;100.00;99325.75;10477186;28;20041;-80
2023/12/10 12:22:40;;;;;;;12.75;2.13;;;;;;;5.99;100.00;99310.00;10446032;28;20071;-80
2023/12/10 12:27:43;;;;;;;21.00;3.58;;;;;;;6.27;98.93;99310.47;10454414;28;20536;-80
2023/12/10 12:32:46;;;;;;;17.45;3.17;;;;;;;6.20;98.40;99327.94;10453373;28;20116;-78
2023/12/10 12:37:51;;;;;;;14.60;2.67;;;;;;;6.05;95.57;99336.16;10433680;28;20081;-80
2023/12/10 12:42:54;;;;;;;17.17;2.70;;;;;;;6.13;95.88;99328.41;10446467;28;20105;-78
2023/12/10 12:47:57;;;;;;;19.08;4.07;;;;;;;6.51;93.62;99316.50;10445998;28;20093;-79
2023/12/10 12:53:02;;;;;;;25.20;4.50;;;;;;;6.33;94.84;99318.81;10458805;28;20124;-79
2023/12/10 12:58:05;;;;;;;20.10;4.88;;;;;;;6.22;94.63;99304.66;10463067;28;20094;-79
2023/12/10 13:03:08;;;;;;;18.15;6.53;;;;;;;6.50;93.71;99311.28;10453368;28;20048;-78
2023/12/10 13:08:12;;;;;;;6.20;1.65;;;;;;;6.28;94.96;99328.16;10462216;28;20153;-79
2023/12/10 13:13:16;;;;;;;20.70;3.95;;;;;;;6.05;94.41;99320.19;10461647;28;20040;-79
2023/12/10 13:18:19;;;;;;;22.83;3.30;;;;;;;6.44;93.13;99333.13;10411819;28;20049;-78
2023/12/10 13:23:23;;;;;;;15.88;2.10;;;;;;;6.40;93.25;99324.53;10410055;28;20053;-78
2023/12/10 13:28:27;;;;;;;16.60;4.13;;;;;;;6.57;92.07;99329.34;10442823;28;20037;-78
2023/12/10 13:33:30;;;;;;;22.42;4.10;;;;;;;6.74;92.20;99330.63;10443870;28;20120;-78
2023/12/10 13:38:34;;;;;;;12.52;3.78;;;;;;;6.70;90.77;99331.88;10455097;28;20048;-78
2023/12/10 13:43:37;;;;;;;10.80;2.70;;;;;;;7.13;86.66;99339.03;10457332;28;20041;-78
2023/12/10 13:48:40;;;;;;;15.90;5.47;;;;;;;7.14;85.50;99324.72;10475589;28;20037;-79
2023/12/10 13:53:46;;;;;;;20.10;3.42;;;;;;;7.61;81.92;99337.69;10472123;28;20041;-81
2023/12/10 13:58:49;;;;;;;18.63;2.72;;;;;;;7.73;79.11;99341.97;10490295;28;20049;-81
2023/12/10 14:03:52;;;;;;;11.80;3.63;;;;;;;6.95;82.47;99320.03;10452660;28;20049;-79
2023/12/10 14:08:57;;;;;;;16.73;2.28;;;;;;;7.04;78.70;99337.97;10452874;28;20438;-79
2023/12/10 14:14:00;;;;;;;15.32;3.40;;;;;;;6.75;77.93;99334.16;10448974;28;20065;-79
2023/12/10 14:19:03;;;;;;;13.15;3.47;;;;;;;6.73;78.90;99333.44;10447599;28;20050;-79
2023/12/10 14:24:09;;;;;;;20.98;3.75;;;;;;;6.76;79.02;99347.38;10460257;28;20097;-79
2023/12/10 14:29:12;;;;;;;11.00;3.10;;;;;;;6.95;79.02;99333.41;10462649;28;20072;-79
2023/12/10 14:34:15;;;;;;;16.05;4.20;;;;;;;6.93;78.87;99334.50;10464017;28;20043;-78
2023/12/10 14:39:22;;;;;;;19.55;3.78;;;;;;;7.03;78.77;99341.63;10463878;28;20564;-78
2023/12/10 14:44:25;;;;;;;19.73;3.70;;;;;;;7.14;78.00;99329.22;10463944;28;20116;-78
2023/12/10 14:49:29;;;;;;;29.92;4.05;;;;;;;7.10;78.75;99325.09;10460797;28;20055;-79
2023/12/10 14:54:33;;;;;;;19.60;4.20;;;;;;;7.24;78.54;99338.13;10470599;28;20068;-79
2023/12/10 14:59:36;;;;;;;15.10;4.30;;;;;;;7.43;77.64;99318.72;10462672;28;20803;-79
2023/12/10 15:04:39;;;;;;;11.52;2.78;;;;;;;6.99;78.70;99325.97;10459792;28;20116;-79
2023/12/10 15:09:45;;;;;;;23.70;4.03;;;;;;;7.03;79.18;99332.75;10463350;28;20045;-80
2023/12/10 15:14:49;;;;;;;22.42;4.95;;;;;;;7.38;77.78;99329.81;10456982;28;20056;-79
2023/12/10 15:19:52;;;;;;;29.10;6.43;;;;;;;7.11;79.57;99316.94;10451242;28;20074;-79
2023/12/10 15:24:56;;;;;;;22.25;4.07;;;;;;;7.14;78.99;99329.22;10446499;28;20029;-79
2023/12/10 15:30:00;;;;;;;20.20;4.40;;;;;;;7.06;79.50;99312.00;10454889;28;20044;-79
2023/12/10 15:41:52;;;;;;;24.35;5.07;;;;;;;7.06;80.19;99306.66;10456578;28;20571;-79
2023/12/10 15:46:55;;;;;;;20.80;4.60;;;;;;;7.19;79.93;99303.81;10463080;28;20100;-79
2023/12/10 15:51:59;;;;;;;23.35;4.63;;;;;;;7.34;80.23;99288.28;10454177;28;20074;-80
2023/12/10 15:57:05;;;;;;;27.27;6.40;;;;;;;7.52;79.51;99282.38;10456387;28;20148;-80
2023/12/10 16:02:08;;;;;;;17.40;4.50;;;;;;;7.27;80.62;99276.47;10452945;28;20041;-79
2023/12/10 16:07:11;;;;;;;19.73;5.68;;;;;;;7.67;79.69;99287.22;10459375;28;20051;-79
2023/12/10 16:12:21;;;;;;;27.25;6.13;;;;;;;7.76;79.89;99263.34;10478403;28;20037;-79
2023/12/10 16:17:24;;;;;;;28.05;5.15;;;;;;;7.64;81.26;99275.97;10457059;28;20041;-80
2023/12/10 16:22:28;;;;;;;24.80;4.93;;;;;;;7.91;80.29;99267.38;10451262;28;20128;-79
2023/12/10 16:27:32;;;;;;;25.15;4.00;;;;;;;7.62;81.56;99276.09;10435106;28;20048;-79
2023/12/10 16:32:36;;;;;;;34.35;5.25;;;;;;;7.66;82.34;99256.16;10445066;28;20037;-79
2023/12/10 16:37:39;;;;;;;30.75;5.15;;;;;;;7.81;81.66;99259.28;10417648;28;20048;-79
2023/12/10 16:42:43;;;;;;;26.05;4.18;;;;;;;7.82;81.62;99228.94;10459838;28;20037;-79
2023/12/10 16:47:46;;;;;;;28.48;5.63;;;;;;;8.07;80.23;99222.25;10460439;28;20052;-79
2023/12/10 16:52:49;;;;;;;26.17;5.07;;;;;;;8.12;80.48;99212.00;10450634;28;20029;-79
2023/12/10 16:57:54;;;;;;;23.63;4.85;;;;;;;8.05;81.01;99193.94;10446503;28;20075;-79
2023/12/10 17:02:57;;;;;;;26.08;4.30;;;;;;;7.75;82.54;99189.50;10447071;28;20087;-79
2023/12/10 17:08:00;;;;;;;22.90;4.20;;;;;;;8.08;80.91;99169.59;10454035;28;20044;-79
2023/12/10 17:13:07;;;;;;;40.88;5.30;;;;;;;8.12;81.18;99146.97;10458034;28;20037;-79
2023/12/10 17:18:10;;;;;;;32.25;6.32;;;;;;;7.84;82.62;99138.72;10455388;28;20165;-79
2023/12/10 17:23:13;;;;;;;33.10;6.57;;;;;;;7.99;81.85;99131.16;10457049;28;20037;-79
2023/12/10 17:28:18;;;;;;;25.60;3.75;;;;;;;7.83;82.08;99128.19;10494324;28;20073;-79
2023/12/10 17:33:21;;;;;;;31.63;5.95;;;;;;;8.12;80.48;99093.47;10456501;28;20120;-79
2023/12/10 17:38:25;;;;;;;35.83;5.95;;;;;;;8.10;80.71;99101.63;10452913;28;20630;-79
2023/12/10 17:43:30;;;;;;;26.38;5.07;;;;;;;8.23;79.70;99092.47;10460276;28;20104;-79
2023/12/10 17:48:33;;;;;;;24.65;4.53;;;;;;;8.08;80.47;99068.81;10466473;28;20135;-79
2023/12/10 17:53:36;;;;;;;28.67;5.65;;;;;;;8.09;80.62;99061.63;10461511;28;20067;-79
2023/12/10 17:58:41;;;;;;;22.60;3.97;;;;;;;7.95;80.39;99038.81;10466675;28;20119;-80
2023/12/10 18:03:44;;;;;;;20.25;4.53;;;;;;;7.80;80.19;99013.50;10465160;28;20040;-80
2023/12/10 18:08:47;;;;;;;25.02;4.45;;;;;;;8.02;78.83;99009.72;10472103;28;20049;-79
2023/12/10 18:13:53;;;;;;;24.10;5.10;;;;;;;8.17;77.79;98986.88;10458080;28;20042;-79
2023/12/10 18:18:58;;;;;;;20.83;4.47;;;;;;;7.95;78.10;99001.41;10461121;28;20692;-79
2023/12/10 18:24:01;;;;;;;21.35;5.57;;;;;;;7.85;78.64;98992.56;10462928;28;20152;-79
2023/12/10 18:29:05;;;;;;;16.13;3.53;;;;;;;7.88;77.54;98970.88;10472397;28;20071;-79
2023/12/10 18:34:08;;;;;;;17.70;3.88;;;;;;;8.04;76.73;98964.97;10459539;28;20053;-79
2023/12/10 18:39:12;;;;;;;18.92;3.78;;;;;;;7.91;76.89;98946.53;10462617;28;20076;-79
2023/12/10 18:44:17;;;;;;;19.13;4.43;;;;;;;8.07;76.54;98925.41;10429696;28;20121;-79
2023/12/10 18:49:20;;;;;;;21.08;3.30;;;;;;;7.80;76.63;98918.13;10445372;28;20123;-77
2023/12/10 18:54:23;;;;;;;16.65;5.03;;;;;;;7.93;78.69;98899.13;10449357;28;20101;-78
2023/12/10 18:59:31;;;;;;;9.68;2.63;;;;;;;7.18;86.73;98898.00;10467703;28;20045;-78
2023/12/10 19:04:34;;;;;;;14.57;1.98;;;;;;;6.87;92.28;98903.44;10448186;28;20523;-80
2023/12/10 19:09:38;;;;;;;19.33;3.38;;;;;;;6.67;96.88;98872.31;10437347;28;20527;-80
2023/12/10 19:14:42;;;;;;;17.20;3.00;;;;;;;6.43;100.00;98872.66;10450330;28;20408;-79
2023/12/10 19:19:48;;;;;;;23.20;3.83;;;;;;;6.39;100.00;98854.25;10438657;28;20121;-81
2023/12/10 19:24:54;;;;;;;14.02;3.33;;;;;;;6.24;100.00;98847.59;10444883;28;20056;-81
2023/12/10 19:29:58;;;;;;;21.20;2.40;;;;;;;6.45;100.00;98806.69;10434556;28;20060;-80
2023/12/10 19:35:01;;;;;;;13.98;4.03;;;;;;;6.53;100.00;98797.00;10457062;28;20068;-80
2023/12/10 19:40:05;;;;;;;21.27;3.60;;;;;;;6.48;100.00;98791.25;10450303;28;20069;-81
2023/12/10 19:45:11;;;;;;;13.95;2.53;;;;;;;6.45;100.00;98786.19;10441887;28;20045;-80
2023/12/10 19:50:14;;;;;;;20.83;3.05;;;;;;;6.51;100.00;98764.28;10435550;28;20085;-78
2023/12/10 19:55:22;;;;;;;12.65;2.85;;;;;;;6.40;100.00;98743.91;10452133;28;20088;-78
2023/12/10 20:00:27;;;;;;;16.98;2.67;;;;;;;6.27;100.00;98727.31;10464221;28;20073;-77
2023/12/10 20:05:30;;;;;;;20.35;3.47;;;;;;;6.40;100.00;98716.41;10437576;28;20042;-78
2023/12/10 20:10:33;;;;;;;18.65;5.22;;;;;;;6.30;100.00;98692.38;10458264;28;20068;-77
2023/12/10 20:15:38;;;;;;;20.42;4.10;;;;;;;6.24;100.00;98679.59;10453478;28;20049;-77
2023/12/10 20:20:42;;;;;;;16.90;3.67;;;;;;;6.29;100.00;98668.53;10460549;28;20048;-78
2023/12/10 20:25:46;;;;;;;18.73;3.70;;;;;;;6.42;100.00;98646.91;10454680;28;20097;-78
2023/12/10 20:30:51;;;;;;;17.48;3.95;;;;;;;6.38;100.00;98641.00;10471795;28;20116;-77
2023/12/10 20:35:55;;;;;;;18.25;2.58;;;;;;;5.97;100.00;98626.09;10479273;28;20033;-78
2023/12/10 20:40:59;;;;;;;16.50;2.53;;;;;;;5.99;100.00;98627.66;10453339;28;20128;-78
2023/12/10 20:46:03;;;;;;;10.93;1.83;;;;;;;5.89;100.00;98622.28;10471318;28;20044;-78
2023/12/10 20:51:10;;;;;;;14.90;1.92;;;;;;;6.04;100.00;98621.91;10460342;28;20124;-78
2023/12/10 20:56:13;;;;;;;9.50;2.63;;;;;;;6.27;100.00;98595.81;10471080;28;20135;-79
2023/12/10 21:01:17;;;;;;;4.15;1.33;;;;;;;5.87;100.00;98612.75;10459743;28;20037;-77
2023/12/10 21:06:20;;;;;;;6.28;1.23;;;;;;;6.15;100.00;98595.97;10474632;28;20044;-78
2023/12/10 21:11:24;;;;;;;12.70;2.03;;;;;;;6.44;100.00;98594.28;10469338;28;20142;-78
2023/12/10 21:16:28;;;;;;;8.45;2.20;;;;;;;6.60;100.00;98582.03;10469577;28;20056;-80
2023/12/10 21:21:32;;;;;;;9.50;2.03;;;;;;;6.74;100.00;98555.91;10481548;28;20047;-80
2023/12/10 21:26:36;;;;;;;6.85;2.38;;;;;;;6.57;100.00;98578.81;10484575;28;20033;-79
2023/12/10 21:31:40;;;;;;;3.53;1.67;;;;;;;6.66;100.00;98566.44;10478601;28;20056;-78
2023/12/10 21:36:43;;;;;;;5.18;1.88;;;;;;;7.04;100.00;98561.03;10472008;28;20029;-79
2023/12/10 21:41:46;;;;;;;4.47;1.42;;;;;;;7.09;100.00;98557.91;10464365;28;20033;-79
2023/12/10 21:46:51;;;;;;;4.18;1.08;;;;;;;6.98;100.00;98560.78;10450200;28;20095;-80
2023/12/10 21:51:55;;;;;;;2.47;1.83;;;;;;;7.18;100.00;98551.69;10470034;28;20047;-80
2023/12/10 21:56:58;;;;;;;7.18;2.08;;;;;;;7.56;100.00;98557.84;10466289;28;20057;-81
2023/12/10 22:02:03;;;;;;;4.47;1.83;;;;;;;7.43;100.00;98576.03;10475514;28;20051;-79
2023/12/10 22:07:06;;;;;;;5.72;1.83;;;;;;;7.39;100.00;98583.50;10461953;28;20041;-80
2023/12/10 22:12:10;;;;;;;5.35;1.60;;;;;;;7.67;100.00;98597.69;10466302;28;20040;-79
2023/12/10 22:17:15;;;;;;;7.93;2.42;;;;;;;7.63;100.00;98572.28;10464510;28;20056;-80
2023/12/10 22:22:18;;;;;;;9.02;2.75;;;;;;;7.86;100.00;98563.84;10459105;28;20516;-81
2023/12/10 22:27:21;;;;;;;5.82;2.58;;;;;;;7.87;100.00;98586.88;10449627;28;20114;-80
2023/12/10 22:32:25;;;;;;;6.07;2.40;;;;;;;8.02;100.00;98587.22;10454835;28;20104;-79
2023/12/10 22:37:28;;;;;;;5.53;1.73;;;;;;;7.90;100.00;98611.50;10449498;28;20093;-79
2023/12/10 22:42:31;;;;;;;12.63;2.75;;;;;;;7.99;100.00;98617.78;10476702;28;20036;-79
2023/12/10 22:47:36;;;;;;;10.45;2.22;;;;;;;8.05;100.00;98597.63;10473059;28;20111;-79
2023/12/10 22:52:39;;;;;;;5.25;1.90;;;;;;;7.95;100.00;98622.59;10465249;28;20065;-80
2023/12/10 22:57:42;;;;;;;7.72;2.78;;;;;;;8.08;100.00;98618.69;10457096;28;20088;-79
2023/12/10 23:02:49;;;;;;;4.93;1.90;;;;;;;7.97;100.00;98616.25;10453897;28;20052;-80
2023/12/10 23:07:52;;;;;;;13.75;2.55;;;;;;;8.09;100.00;98631.94;10451502;28;20049;-80
2023/12/10 23:12:55;;;;;;;9.65;2.47;;;;;;;8.04;100.00;98614.66;10442918;28;20061;-80
2023/12/10 23:17:59;;;;;;;9.90;2.28;;;;;;;8.03;100.00;98635.19;10440880;28;20048;-78
2023/12/10 23:23:02;;;;;;;8.40;2.42;;;;;;;7.89;100.00;98641.88;10426464;28;20105;-80
2023/12/10 23:28:06;;;;;;;8.93;1.95;;;;;;;8.07;100.00;98655.31;10428195;28;20041;-80
2023/12/10 23:33:10;;;;;;;8.57;1.63;;;;;;;8.09;99.70;98645.31;10434546;28;20056;-79